Time;durP1;ratioP1;P1;durP2;ratioP2;P2;SDS_P1;SDS_P2;PMS_P1;PMS_P2;Temp;Humidity;BMP_temperature;BMP_pressure;BME280_temperature;BME280_humidity;BME280_pressure;Samples;Min_cycle;Max_cycle;Signal;HPM_P1;HPM_P2
2023/11/08 00:00:52;;;;;;;8.82;4.60;;;8.00;99.90;;;;;;5069600;28;20400;-84
2023/11/08 00:03:18;;;;;;;8.20;4.32;;;8.60;99.90;;;;;;5067736;28;20417;-83
2023/11/08 00:05:45;;;;;;;9.52;4.65;;;8.30;99.90;;;;;;5050219;28;20033;-83
2023/11/08 00:08:12;;;;;;;8.82;4.47;;;8.10;99.90;;;;;;5078455;28;20052;-83
2023/11/08 00:10:40;;;;;;;8.45;4.43;;;9.10;99.90;;;;;;5071933;28;20556;-83
2023/11/08 00:13:07;;;;;;;7.75;4.30;;;8.00;99.90;;;;;;5086205;28;20397;-83
2023/11/08 00:15:34;;;;;;;11.15;4.32;;;8.10;99.90;;;;;;5059432;28;20033;-83
2023/11/08 00:18:01;;;;;;;9.43;4.60;;;8.10;99.90;;;;;;5066234;28;20038;-84
2023/11/08 00:20:27;;;;;;;8.15;4.28;;;8.80;99.90;;;;;;5095145;28;20466;-84
2023/11/08 00:22:55;;;;;;;8.02;4.10;;;8.10;99.90;;;;;;5096827;28;20515;-84
2023/11/08 00:25:22;;;;;;;8.50;4.55;;;8.10;99.90;;;;;;5066499;28;20049;-84
2023/11/08 00:27:49;;;;;;;8.43;3.90;;;8.10;99.90;;;;;;5056183;28;20120;-84
2023/11/08 00:30:15;;;;;;;8.40;3.90;;;8.00;99.90;;;;;;5069308;28;20037;-84
2023/11/08 00:32:42;;;;;;;6.82;4.05;;;8.00;99.90;;;;;;5065885;28;20079;-84
2023/11/08 00:35:09;;;;;;;8.50;4.03;;;8.00;99.90;;;;;;5101608;28;20041;-84
2023/11/08 00:37:37;;;;;;;7.57;3.67;;;8.00;99.90;;;;;;5057291;28;20041;-84
2023/11/08 00:40:05;;;;;;;7.50;3.65;;;8.00;99.90;;;;;;5066194;28;20048;-83
2023/11/08 00:42:31;;;;;;;9.55;3.72;;;8.00;99.90;;;;;;5112652;28;20037;-84
2023/11/08 00:44:58;;;;;;;6.32;3.35;;;8.00;99.90;;;;;;5069178;28;20523;-83
2023/11/08 00:47:25;;;;;;;7.32;3.40;;;8.00;99.90;;;;;;5055945;28;20047;-84
2023/11/08 00:49:51;;;;;;;7.55;3.97;;;7.90;99.90;;;;;;5060858;28;20489;-84
2023/11/08 00:52:18;;;;;;;6.45;3.17;;;7.90;99.90;;;;;;5106627;28;20123;-84
2023/11/08 00:54:45;;;;;;;6.78;3.17;;;7.90;99.90;;;;;;5115456;28;20049;-84
2023/11/08 00:57:12;;;;;;;6.63;2.97;;;8.00;99.90;;;;;;5099992;28;20041;-84
2023/11/08 00:59:39;;;;;;;5.55;2.85;;;7.90;99.90;;;;;;5078216;28;20037;-83
2023/11/08 01:02:06;;;;;;;7.10;3.30;;;7.90;99.90;;;;;;5087753;28;20044;-83
2023/11/08 01:04:33;;;;;;;6.20;3.40;;;8.70;99.90;;;;;;5061596;28;20072;-83
2023/11/08 01:07:00;;;;;;;7.57;4.00;;;8.40;99.90;;;;;;5059708;28;20042;-84
2023/11/08 01:09:27;;;;;;;8.88;4.57;;;8.00;99.90;;;;;;5122793;28;20037;-84
2023/11/08 01:11:54;;;;;;;9.82;4.72;;;8.00;99.90;;;;;;5072844;28;20565;-83
2023/11/08 01:14:21;;;;;;;8.60;4.90;;;8.00;99.90;;;;;;5105974;28;20523;-84
2023/11/08 01:16:48;;;;;;;9.70;4.78;;;8.20;99.90;;;;;;5089526;28;20049;-84
2023/11/08 01:19:14;;;;;;;9.48;5.78;;;8.50;99.90;;;;;;5072865;28;20055;-84
2023/11/08 01:21:45;;;;;;;11.90;6.00;;;8.00;99.90;;;;;;5122786;28;20063;-84
2023/11/08 01:24:15;;;;;;;12.85;6.35;;;8.70;99.90;;;;;;5072403;28;20037;-84
2023/11/08 01:26:42;;;;;;;9.30;5.65;;;8.00;99.90;;;;;;5072843;28;20041;-84
2023/11/08 01:29:09;;;;;;;12.68;6.55;;;7.90;99.90;;;;;;5059211;28;20098;-84
2023/11/08 01:31:35;;;;;;;11.93;6.43;;;8.20;99.90;;;;;;5086264;28;20040;-84
2023/11/08 01:34:02;;;;;;;12.52;6.65;;;7.90;99.90;;;;;;5111961;28;20051;-84
2023/11/08 01:36:30;;;;;;;13.75;7.15;;;7.90;99.90;;;;;;5105377;28;20040;-84
2023/11/08 01:38:58;;;;;;;10.85;7.20;;;7.90;99.90;;;;;;5072450;28;20041;-84
2023/11/08 01:41:25;;;;;;;13.48;7.40;;;7.90;99.90;;;;;;5105759;28;20041;-83
2023/11/08 01:43:51;;;;;;;14.32;7.25;;;8.00;99.90;;;;;;5071991;28;20090;-84
2023/11/08 01:46:23;;;;;;;11.27;6.72;;;8.90;99.90;;;;;;5058943;28;20112;-84
2023/11/08 01:48:54;;;;;;;14.68;7.45;;;8.80;99.90;;;;;;5072270;28;20051;-84
2023/11/08 01:51:21;;;;;;;13.80;7.13;;;8.00;99.90;;;;;;5105409;28;20075;-84
2023/11/08 01:53:50;;;;;;;13.23;7.25;;;8.70;99.90;;;;;;5088481;28;20044;-84
2023/11/08 01:56:17;;;;;;;14.45;7.25;;;8.00;99.90;;;;;;5098181;28;20033;-84
2023/11/08 01:58:45;;;;;;;12.73;7.72;;;8.00;99.90;;;;;;5052960;28;20038;-84
2023/11/08 02:01:12;;;;;;;15.73;7.40;;;8.00;99.90;;;;;;5064275;28;20187;-84
2023/11/08 02:03:40;;;;;;;13.48;7.05;;;8.90;99.90;;;;;;5068418;28;20124;-84
2023/11/08 02:06:10;;;;;;;14.88;7.07;;;8.70;99.90;;;;;;5073530;28;20195;-84
2023/11/08 02:08:40;;;;;;;14.30;7.50;;;8.00;99.90;;;;;;5084151;28;20069;-84
2023/11/08 02:11:08;;;;;;;14.38;7.65;;;8.70;99.90;;;;;;5105169;28;20397;-84
2023/11/08 02:13:35;;;;;;;20.90;7.32;;;8.50;99.90;;;;;;5071502;28;20055;-84
2023/11/08 02:16:02;;;;;;;13.38;7.20;;;8.00;99.90;;;;;;5088341;28;20041;-84
2023/11/08 02:18:31;;;;;;;15.27;7.40;;;8.00;99.90;;;;;;5084764;28;20090;-84
2023/11/08 02:21:01;;;;;;;16.35;7.97;;;8.00;99.90;;;;;;5084892;28;20041;-83
2023/11/08 02:23:28;;;;;;;13.82;7.68;;;8.30;99.90;;;;;;5071711;28;20067;-83
2023/11/08 02:25:55;;;;;;;13.77;7.85;;;8.40;99.90;;;;;;5071241;28;20037;-84
2023/11/08 02:28:22;;;;;;;17.48;8.55;;;8.00;99.90;;;;;;5071219;28;20423;-83
2023/11/08 02:30:56;;;;;;;15.43;7.85;;;8.60;99.90;;;;;;5071392;28;20512;-84
2023/11/08 02:33:24;;;;;;;14.82;7.40;;;8.70;99.90;;;;;;5058128;28;20067;-83
2023/11/08 02:35:52;;;;;;;13.82;8.20;;;8.10;99.90;;;;;;5071365;28;20080;-84
2023/11/08 02:38:19;;;;;;;16.77;8.40;;;8.20;99.90;;;;;;5082451;28;20505;-83
2023/11/08 02:40:46;;;;;;;13.90;8.18;;;8.10;99.90;;;;;;5095721;28;20045;-83
2023/11/08 02:43:13;;;;;;;12.75;7.90;;;8.10;99.90;;;;;;5084399;28;20120;-84
2023/11/08 02:45:40;;;;;;;15.30;8.32;;;8.10;99.90;;;;;;5063486;28;20037;-84
2023/11/08 02:48:07;;;;;;;13.90;8.82;;;8.40;99.90;;;;;;5070961;28;20028;-83
2023/11/08 02:50:42;;;;;;;16.85;8.48;;;8.10;99.90;;;;;;5104252;28;20619;-84
2023/11/08 02:53:08;;;;;;;17.05;8.18;;;8.10;99.90;;;;;;5071937;28;20117;-84
2023/11/08 02:55:37;;;;;;;15.38;7.78;;;8.10;99.90;;;;;;5081809;28;20087;-83
2023/11/08 02:58:03;;;;;;;15.88;8.10;;;8.10;99.90;;;;;;5087798;28;20048;-84
2023/11/08 03:00:30;;;;;;;13.95;7.97;;;8.60;99.90;;;;;;5057485;28;20042;-84
2023/11/08 03:02:57;;;;;;;15.60;6.93;;;8.10;99.90;;;;;;5103587;28;20064;-84
2023/11/08 03:05:24;;;;;;;13.52;7.47;;;8.80;99.90;;;;;;5087637;28;20044;-83
2023/11/08 03:07:53;;;;;;;15.82;7.72;;;8.80;99.90;;;;;;5103657;28;20048;-84
2023/11/08 03:10:21;;;;;;;15.68;7.47;;;8.60;99.90;;;;;;5099945;28;20064;-84
2023/11/08 03:12:51;;;;;;;13.23;7.78;;;8.10;99.90;;;;;;5067358;28;20048;-84
2023/11/08 03:15:20;;;;;;;16.08;8.43;;;8.80;99.90;;;;;;5072478;28;20497;-84
2023/11/08 03:17:49;;;;;;;15.10;8.32;;;8.90;99.90;;;;;;5095294;28;20044;-84
2023/11/08 03:20:16;;;;;;;14.20;8.05;;;8.70;99.90;;;;;;5059974;28;20091;-84
2023/11/08 03:22:43;;;;;;;21.55;9.20;;;8.20;99.90;;;;;;5080156;28;20088;-83
2023/11/08 03:25:11;;;;;;;12.57;8.60;;;8.50;99.90;;;;;;5069862;28;20040;-83
2023/11/08 03:27:47;;;;;;;13.95;8.50;;;8.20;99.90;;;;;;5053768;28;20111;-83
2023/11/08 03:30:15;;;;;;;15.25;9.20;;;8.80;99.90;;;;;;5050526;28;20041;-84
2023/11/08 03:32:43;;;;;;;15.60;8.88;;;8.90;99.90;;;;;;5108974;28;20029;-83
2023/11/08 03:35:11;;;;;;;16.67;9.85;;;8.20;99.90;;;;;;5072239;28;20124;-83
2023/11/08 03:37:44;;;;;;;18.70;10.23;;;8.30;99.90;;;;;;5070458;28;20045;-83
2023/11/08 03:40:15;;;;;;;21.95;12.00;;;8.20;99.90;;;;;;5069817;28;20374;-84
2023/11/08 03:42:42;;;;;;;19.00;11.57;;;8.20;99.90;;;;;;5089920;28;20045;-83
2023/11/08 03:45:09;;;;;;;22.20;11.50;;;8.20;99.90;;;;;;5066356;28;20099;-83
2023/11/08 03:47:38;;;;;;;21.25;12.18;;;8.20;99.90;;;;;;5065423;28;20433;-83
2023/11/08 03:50:05;;;;;;;24.13;12.50;;;8.20;99.90;;;;;;5103289;28;20032;-83
2023/11/08 03:52:32;;;;;;;17.45;10.82;;;8.20;99.90;;;;;;5069774;28;20139;-84
2023/11/08 03:54:59;;;;;;;17.80;9.68;;;8.10;99.90;;;;;;5119728;28;20123;-84
2023/11/08 03:57:27;;;;;;;17.33;9.20;;;8.10;99.90;;;;;;5056918;28;20045;-84
2023/11/08 03:59:54;;;;;;;16.52;8.27;;;8.10;99.90;;;;;;5086303;28;20417;-84
2023/11/08 04:02:21;;;;;;;15.02;7.38;;;8.00;99.90;;;;;;5056510;28;20041;-84
2023/11/08 04:04:49;;;;;;;13.77;7.40;;;8.10;99.90;;;;;;5069839;28;20081;-84
2023/11/08 04:07:18;;;;;;;17.60;7.68;;;8.00;99.90;;;;;;5086646;28;20036;-84
2023/11/08 04:09:45;;;;;;;11.75;7.18;;;8.00;99.90;;;;;;5107196;28;20497;-84
2023/11/08 04:12:12;;;;;;;14.93;7.13;;;8.50;99.90;;;;;;5085836;28;20040;-84
2023/11/08 04:14:39;;;;;;;12.18;7.07;;;8.50;99.90;;;;;;5069777;28;20753;-84
2023/11/08 04:17:08;;;;;;;10.85;6.40;;;8.50;99.90;;;;;;5066399;28;20049;-85
2023/11/08 04:19:36;;;;;;;13.70;7.47;;;8.00;99.90;;;;;;5102289;28;20041;-84
2023/11/08 04:22:03;;;;;;;13.05;6.45;;;8.30;99.90;;;;;;5086165;28;20535;-84
2023/11/08 04:24:30;;;;;;;12.95;6.53;;;8.00;99.90;;;;;;5087413;28;20042;-84
2023/11/08 04:26:59;;;;;;;12.68;6.28;;;8.40;99.90;;;;;;5066426;28;20041;-84
2023/11/08 04:29:25;;;;;;;13.95;6.30;;;8.00;99.90;;;;;;5067087;28;20513;-84
2023/11/08 04:31:52;;;;;;;13.52;6.15;;;9.00;99.90;;;;;;5071649;28;20037;-83
2023/11/08 04:34:19;;;;;;;11.00;5.25;;;8.40;99.90;;;;;;5086763;28;20505;-83
2023/11/08 04:36:45;;;;;;;10.00;5.80;;;8.30;99.90;;;;;;5073164;28;20051;-84
2023/11/08 04:39:16;;;;;;;15.07;5.70;;;8.70;99.90;;;;;;5111671;28;20037;-84
2023/11/08 04:41:44;;;;;;;11.63;5.80;;;8.10;99.90;;;;;;5073386;28;20154;-84
2023/11/08 04:44:11;;;;;;;14.02;5.68;;;9.00;99.90;;;;;;5100389;28;20385;-84
2023/11/08 04:46:41;;;;;;;12.77;5.55;;;8.10;99.90;;;;;;5066725;28;20126;-84
2023/11/08 04:49:09;;;;;;;12.25;5.50;;;8.10;99.90;;;;;;5084660;28;20041;-84
2023/11/08 04:51:37;;;;;;;11.77;5.00;;;8.10;99.90;;;;;;5073474;28;20119;-84
2023/11/08 04:54:04;;;;;;;8.57;5.10;;;8.10;99.90;;;;;;5106550;28;20048;-84
2023/11/08 04:56:31;;;;;;;7.93;4.65;;;8.10;99.90;;;;;;5073642;28;20041;-84
2023/11/08 04:58:57;;;;;;;14.60;5.00;;;8.10;99.90;;;;;;5073089;28;20150;-84
2023/11/08 05:01:24;;;;;;;14.07;4.80;;;8.00;99.90;;;;;;5073263;28;20063;-84
2023/11/08 05:03:51;;;;;;;9.38;5.30;;;8.00;99.90;;;;;;5069767;28;20045;-84
2023/11/08 05:06:17;;;;;;;11.77;5.72;;;8.00;99.90;;;;;;5075978;28;20071;-84
2023/11/08 05:08:44;;;;;;;14.57;5.85;;;8.00;99.90;;;;;;5099418;28;20037;-84
2023/11/08 05:11:10;;;;;;;12.77;6.40;;;8.00;99.90;;;;;;5069703;28;20041;-84
2023/11/08 05:13:39;;;;;;;10.63;6.40;;;8.00;99.90;;;;;;5103741;28;20044;-85
2023/11/08 05:16:06;;;;;;;10.68;6.07;;;8.20;99.90;;;;;;5089769;28;20048;-84
2023/11/08 05:18:33;;;;;;;11.20;6.63;;;8.70;99.90;;;;;;5072754;28;20463;-84
2023/11/08 05:20:59;;;;;;;13.30;6.90;;;8.10;99.90;;;;;;5069033;28;20520;-84
2023/11/08 05:23:26;;;;;;;10.82;6.50;;;8.60;99.90;;;;;;5063158;28;20448;-84
2023/11/08 05:25:53;;;;;;;14.60;6.93;;;8.00;99.90;;;;;;5073132;28;20029;-84
2023/11/08 05:28:19;;;;;;;15.02;7.13;;;8.60;99.90;;;;;;5072817;28;20043;-83
2023/11/08 05:30:46;;;;;;;11.65;6.80;;;8.00;99.90;;;;;;5072423;28;20124;-84
2023/11/08 05:33:13;;;;;;;14.57;6.80;;;8.10;99.90;;;;;;5069431;28;20090;-84
2023/11/08 05:35:39;;;;;;;12.75;7.18;;;8.10;99.90;;;;;;5061794;28;20543;-84
2023/11/08 05:38:06;;;;;;;13.98;6.78;;;8.10;99.90;;;;;;5072494;28;20171;-84
2023/11/08 05:40:37;;;;;;;14.48;7.38;;;8.20;99.90;;;;;;5112446;28;20058;-84
2023/11/08 05:43:05;;;;;;;12.85;7.43;;;8.10;99.90;;;;;;5082949;28;20081;-84
2023/11/08 05:45:32;;;;;;;16.95;7.25;;;8.30;99.90;;;;;;5077214;28;20077;-84
2023/11/08 05:47:59;;;;;;;13.27;7.40;;;8.10;99.90;;;;;;5087081;28;20032;-84
2023/11/08 05:50:25;;;;;;;15.30;7.35;;;8.60;99.90;;;;;;5071996;28;20041;-84
2023/11/08 05:52:53;;;;;;;15.15;6.63;;;8.00;99.90;;;;;;5066871;28;20167;-84
2023/11/08 05:55:20;;;;;;;18.02;7.45;;;8.20;99.90;;;;;;5077942;28;20045;-84
2023/11/08 05:57:47;;;;;;;13.00;7.38;;;8.50;99.90;;;;;;5091402;28;20044;-85
2023/11/08 06:00:14;;;;;;;17.10;7.60;;;8.80;99.90;;;;;;5059232;28;20069;-84
2023/11/08 06:02:40;;;;;;;18.48;8.18;;;7.90;99.90;;;;;;5068645;28;20061;-85
2023/11/08 06:05:08;;;;;;;15.57;8.48;;;8.10;99.90;;;;;;5098638;28;20041;-84
2023/11/08 06:07:34;;;;;;;15.85;8.73;;;7.90;99.90;;;;;;5071939;28;20033;-84
2023/11/08 06:10:01;;;;;;;16.15;8.55;;;7.90;99.90;;;;;;5070673;28;20123;-84
2023/11/08 06:12:28;;;;;;;17.85;8.95;;;7.90;99.90;;;;;;5068798;28;20044;-84
2023/11/08 06:14:55;;;;;;;15.32;8.27;;;8.80;99.90;;;;;;5075294;28;20071;-84
2023/11/08 06:17:21;;;;;;;19.58;9.25;;;8.30;99.90;;;;;;5071183;28;20045;-84
2023/11/08 06:19:52;;;;;;;15.93;8.77;;;8.50;99.90;;;;;;5064460;28;20409;-84
2023/11/08 06:22:20;;;;;;;17.08;9.15;;;7.90;99.90;;;;;;5068558;28;20045;-84
2023/11/08 06:24:47;;;;;;;17.38;9.88;;;8.00;99.90;;;;;;5103844;28;20041;-84
2023/11/08 06:27:14;;;;;;;18.95;9.80;;;7.90;99.90;;;;;;5071535;28;20041;-84
2023/11/08 06:29:41;;;;;;;18.02;9.60;;;8.00;99.90;;;;;;5084362;28;20045;-84
2023/11/08 06:32:07;;;;;;;19.20;9.88;;;8.10;99.90;;;;;;5061459;28;20049;-84
2023/11/08 06:34:34;;;;;;;20.58;10.13;;;8.60;99.90;;;;;;5084108;28;20041;-85
2023/11/08 06:37:01;;;;;;;29.88;9.75;;;8.20;99.90;;;;;;5094884;28;20041;-85
2023/11/08 06:39:28;;;;;;;20.27;10.60;;;8.90;99.90;;;;;;5070860;28;20048;-85
2023/11/08 06:41:55;;;;;;;16.25;9.02;;;8.70;99.90;;;;;;5067076;28;20044;-85
2023/11/08 06:44:22;;;;;;;20.92;10.38;;;8.10;99.90;;;;;;5101863;28;20063;-84
2023/11/08 06:46:49;;;;;;;23.38;11.52;;;8.80;99.90;;;;;;5102384;28;20041;-85
2023/11/08 06:49:16;;;;;;;20.30;10.95;;;8.50;99.90;;;;;;5091440;28;20709;-84
2023/11/08 06:51:43;;;;;;;18.88;10.65;;;8.50;99.90;;;;;;5067415;28;20044;-84
2023/11/08 06:54:12;;;;;;;22.33;11.15;;;8.20;99.90;;;;;;5097268;28;20033;-84
2023/11/08 06:56:39;;;;;;;20.63;11.73;;;8.90;99.90;;;;;;5092896;28;20412;-84
2023/11/08 06:59:06;;;;;;;20.92;11.52;;;8.20;99.90;;;;;;5087609;28;20045;-84
2023/11/08 07:01:34;;;;;;;22.15;11.73;;;8.20;99.90;;;;;;5083641;28;20876;-85
2023/11/08 07:04:00;;;;;;;23.63;10.95;;;8.20;99.90;;;;;;5100523;28;20047;-85
2023/11/08 07:06:27;;;;;;;22.45;11.73;;;8.20;99.90;;;;;;5093293;28;20120;-84
2023/11/08 07:08:54;;;;;;;25.65;11.93;;;8.30;99.90;;;;;;5101070;28;20045;-84
2023/11/08 07:11:21;;;;;;;23.30;11.45;;;8.30;99.90;;;;;;5070703;28;20044;-83
2023/11/08 07:13:48;;;;;;;25.77;10.98;;;8.30;99.90;;;;;;5097625;28;20072;-84
2023/11/08 07:16:15;;;;;;;20.15;10.75;;;8.50;99.90;;;;;;5083493;28;20064;-85
2023/11/08 07:18:41;;;;;;;22.45;11.45;;;8.30;99.90;;;;;;5083425;28;20038;-85
2023/11/08 07:21:19;;;;;;;27.83;11.82;;;8.40;99.90;;;;;;5085010;28;20095;-85
2023/11/08 07:23:46;;;;;;;24.40;11.90;;;8.40;99.90;;;;;;5050325;28;20053;-86
2023/11/08 07:26:15;;;;;;;23.17;11.90;;;8.40;99.90;;;;;;5084131;28;20041;-86
2023/11/08 07:28:44;;;;;;;27.80;11.68;;;8.70;99.90;;;;;;5096758;28;20485;-85
2023/11/08 07:31:10;;;;;;;21.85;11.13;;;8.40;99.90;;;;;;5062371;28;20486;-84
2023/11/08 07:33:37;;;;;;;23.98;10.90;;;8.50;99.90;;;;;;5083538;28;20037;-85
2023/11/08 07:36:05;;;;;;;22.60;13.23;;;8.40;99.90;;;;;;5069420;28;20438;-85
2023/11/08 07:38:33;;;;;;;26.60;12.07;;;8.40;99.90;;;;;;5112349;28;20052;-84
2023/11/08 07:41:01;;;;;;;23.27;11.98;;;8.50;99.90;;;;;;5119920;28;20489;-85
2023/11/08 07:43:29;;;;;;;23.05;11.63;;;8.50;99.90;;;;;;5103107;28;20107;-84
2023/11/08 07:45:56;;;;;;;28.77;11.38;;;9.10;99.90;;;;;;5103101;28;20036;-85
2023/11/08 07:48:22;;;;;;;22.27;11.10;;;8.50;99.90;;;;;;5103149;28;20037;-85
2023/11/08 07:50:50;;;;;;;19.80;11.00;;;9.30;99.90;;;;;;5087681;28;20079;-85
2023/11/08 07:53:19;;;;;;;22.65;11.93;;;8.60;99.90;;;;;;5083072;28;20044;-85
2023/11/08 07:55:46;;;;;;;21.33;11.40;;;9.10;99.90;;;;;;5065675;28;20037;-85
2023/11/08 07:58:12;;;;;;;24.00;11.85;;;8.60;99.90;;;;;;5103235;28;20043;-85
2023/11/08 08:00:42;;;;;;;20.83;11.15;;;8.50;99.90;;;;;;5098396;28;20033;-85
2023/11/08 08:03:08;;;;;;;20.35;11.65;;;8.50;99.90;;;;;;5082560;28;20060;-84
2023/11/08 08:05:36;;;;;;;20.88;11.35;;;8.80;99.90;;;;;;5097510;28;20046;-85
2023/11/08 08:08:03;;;;;;;23.15;12.10;;;8.50;99.90;;;;;;5056995;28;20067;-84
2023/11/08 08:10:32;;;;;;;20.95;11.35;;;8.50;99.90;;;;;;5083138;28;20037;-83
2023/11/08 08:12:58;;;;;;;19.25;11.65;;;8.50;99.90;;;;;;5115546;28;20489;-83
2023/11/08 08:15:25;;;;;;;23.73;11.68;;;8.60;99.90;;;;;;5085850;28;20040;-84
2023/11/08 08:17:52;;;;;;;23.10;12.00;;;8.80;99.90;;;;;;5098235;28;20095;-83
2023/11/08 08:20:18;;;;;;;26.15;11.38;;;8.60;99.90;;;;;;5102778;28;20485;-83
2023/11/08 08:22:45;;;;;;;25.65;11.35;;;8.70;99.90;;;;;;5082872;28;20469;-84
2023/11/08 08:25:12;;;;;;;23.75;11.80;;;9.40;99.90;;;;;;5102269;28;20052;-83
2023/11/08 08:27:40;;;;;;;19.48;10.68;;;9.10;99.90;;;;;;5098606;28;20038;-83
2023/11/08 08:30:14;;;;;;;23.55;11.52;;;8.80;99.90;;;;;;5082328;28;20111;-84
2023/11/08 08:32:44;;;;;;;22.05;10.98;;;8.90;99.90;;;;;;5101908;28;20055;-84
2023/11/08 08:35:12;;;;;;;22.95;11.52;;;8.90;99.90;;;;;;5083870;28;20030;-83
2023/11/08 08:37:39;;;;;;;18.88;10.98;;;8.90;99.90;;;;;;5078722;28;20048;-84
2023/11/08 08:40:13;;;;;;;24.65;11.77;;;8.90;99.90;;;;;;5069206;28;20041;-83
2023/11/08 08:42:41;;;;;;;24.95;11.32;;;8.90;99.90;;;;;;5100863;28;20386;-84
2023/11/08 08:45:09;;;;;;;22.23;12.00;;;9.00;99.90;;;;;;5064098;28;20041;-83
2023/11/08 08:47:37;;;;;;;19.23;11.10;;;9.00;99.90;;;;;;5056670;28;20044;-84
2023/11/08 08:50:05;;;;;;;25.25;12.32;;;9.00;99.90;;;;;;5069812;28;20045;-85
2023/11/08 08:52:32;;;;;;;24.75;12.25;;;9.10;99.90;;;;;;5065919;28;20041;-85
2023/11/08 08:54:58;;;;;;;19.17;11.25;;;9.10;99.90;;;;;;5062246;28;20045;-85
2023/11/08 08:57:25;;;;;;;18.63;10.32;;;9.10;99.90;;;;;;5098880;28;20044;-85
2023/11/08 08:59:51;;;;;;;21.63;10.73;;;9.20;99.90;;;;;;5100874;28;20037;-85
2023/11/08 09:02:19;;;;;;;19.75;11.10;;;9.10;99.90;;;;;;5059985;28;20045;-84
2023/11/08 09:04:46;;;;;;;18.33;10.80;;;9.60;99.90;;;;;;5068558;28;20121;-85
2023/11/08 09:07:12;;;;;;;21.05;11.13;;;9.60;99.90;;;;;;5067214;28;20485;-85
2023/11/08 09:09:39;;;;;;;20.05;10.38;;;9.20;99.90;;;;;;5113186;28;20033;-86
2023/11/08 09:12:07;;;;;;;18.70;10.50;;;9.20;99.90;;;;;;5100395;28;20041;-85
2023/11/08 09:14:34;;;;;;;16.23;10.15;;;10.10;99.90;;;;;;5088504;28;20124;-84
2023/11/08 09:17:01;;;;;;;16.10;9.55;;;9.40;99.90;;;;;;5101357;28;20120;-85
2023/11/08 09:19:28;;;;;;;19.60;9.40;;;9.50;99.90;;;;;;5069569;28;20042;-85
2023/11/08 09:21:54;;;;;;;20.98;9.45;;;9.80;99.90;;;;;;5052504;28;20048;-84
2023/11/08 09:24:21;;;;;;;18.13;9.27;;;9.50;99.90;;;;;;5099105;28;20038;-86
2023/11/08 09:26:48;;;;;;;25.17;9.43;;;9.50;99.90;;;;;;5072586;28;20033;-84
2023/11/08 09:29:15;;;;;;;20.42;9.70;;;9.80;99.90;;;;;;5072999;28;20041;-85
2023/11/08 09:31:42;;;;;;;15.70;8.85;;;9.60;99.90;;;;;;5093114;28;20033;-86
2023/11/08 09:34:08;;;;;;;19.27;9.30;;;9.80;99.90;;;;;;5062207;28;20048;-86
2023/11/08 09:36:36;;;;;;;16.42;9.38;;;10.50;99.90;;;;;;5083714;28;20520;-84
2023/11/08 09:39:03;;;;;;;19.90;8.18;;;10.10;99.90;;;;;;5072280;28;20127;-85
2023/11/08 09:41:29;;;;;;;13.10;7.95;;;9.80;99.90;;;;;;5068094;28;20209;-84
2023/11/08 09:43:57;;;;;;;17.63;8.55;;;9.90;99.90;;;;;;5088713;28;20044;-85
2023/11/08 09:46:26;;;;;;;17.50;7.93;;;9.90;99.90;;;;;;5071255;28;20033;-86
2023/11/08 09:48:55;;;;;;;17.70;8.50;;;9.90;99.90;;;;;;5097735;28;20098;-86
2023/11/08 09:51:22;;;;;;;14.20;7.70;;;10.30;99.90;;;;;;5054727;28;20450;-84
2023/11/08 09:53:49;;;;;;;11.60;7.22;;;9.80;99.90;;;;;;5071707;28;20122;-85
2023/11/08 09:56:16;;;;;;;17.52;7.88;;;9.80;99.90;;;;;;5065665;28;20033;-84
2023/11/08 09:58:45;;;;;;;14.20;7.40;;;9.70;99.90;;;;;;5057707;28;20044;-84
2023/11/08 10:01:18;;;;;;;15.90;6.55;;;9.80;99.90;;;;;;5068141;28;20823;-84
2023/11/08 10:03:46;;;;;;;12.48;7.78;;;9.80;99.90;;;;;;5080959;28;20045;-85
2023/11/08 10:06:13;;;;;;;12.75;7.10;;;9.80;99.90;;;;;;5086094;28;20041;-85
2023/11/08 10:08:39;;;;;;;14.90;7.40;;;9.90;99.90;;;;;;5068264;28;20429;-86
2023/11/08 10:11:06;;;;;;;15.23;7.65;;;9.70;99.90;;;;;;5086652;28;20104;-86
2023/11/08 10:13:52;;;;;;;13.52;7.90;;;9.80;99.90;;;;;;5088194;28;20041;-85
2023/11/08 10:16:23;;;;;;;;;;;10.30;99.90;;;;;;5066422;28;20042;-85
2023/11/08 10:19:00;;;;;;;17.10;7.53;;;9.80;99.90;;;;;;5077130;28;19992;-86
2023/11/08 10:21:30;;;;;;;15.88;6.15;;;9.70;99.90;;;;;;5101193;28;20138;-86
2023/11/08 10:24:11;;;;;;;12.73;6.10;;;9.80;99.90;;;;;;5061987;28;20037;-86
2023/11/08 10:26:37;;;;;;;12.43;6.53;;;9.80;99.90;;;;;;5071537;28;20033;-86
2023/11/08 10:29:05;;;;;;;14.32;6.78;;;9.90;99.90;;;;;;5071223;28;20032;-86
2023/11/08 10:31:39;;;;;;;13.32;7.10;;;9.90;99.90;;;;;;5063395;28;20482;-85
2023/11/08 10:34:08;;;;;;;11.55;6.70;;;9.80;99.90;;;;;;5062721;28;20044;-87
2023/11/08 10:36:37;;;;;;;15.35;6.30;;;10.70;99.90;;;;;;5068492;28;20041;-86
2023/11/08 10:39:06;;;;;;;12.23;6.65;;;10.40;99.90;;;;;;5090863;28;20119;-83
2023/11/08 10:41:35;;;;;;;10.60;6.05;;;9.90;99.90;;;;;;5054253;28;20042;-85
2023/11/08 10:44:22;;;;;;;9.90;6.07;;;9.90;99.90;;;;;;5068242;28;20086;-84
2023/11/08 10:46:59;;;;;;;12.75;6.03;;;10.00;99.90;;;;;;5096158;28;20069;-84
2023/11/08 10:49:26;;;;;;;13.48;6.45;;;10.00;99.90;;;;;;5080864;28;20100;-85
2023/11/08 10:51:56;;;;;;;12.38;5.93;;;10.10;99.90;;;;;;5074330;28;20045;-85
2023/11/08 10:54:23;;;;;;;9.85;5.43;;;10.00;99.90;;;;;;5070187;28;20076;-85
2023/11/08 10:56:52;;;;;;;9.98;5.22;;;10.10;99.90;;;;;;5075513;28;20083;-85
2023/11/08 10:59:21;;;;;;;12.05;4.88;;;10.20;99.90;;;;;;5086757;28;20075;-85
2023/11/08 11:01:48;;;;;;;12.77;5.28;;;10.30;99.90;;;;;;5071195;28;20033;-84
2023/11/08 11:04:16;;;;;;;9.60;4.95;;;10.70;99.90;;;;;;5070055;28;20194;-84
2023/11/08 11:06:44;;;;;;;10.02;4.75;;;10.30;99.90;;;;;;5067583;28;20734;-85
2023/11/08 11:09:11;;;;;;;13.43;4.85;;;10.30;99.90;;;;;;5071473;28;20045;-84
2023/11/08 11:11:45;;;;;;;11.45;4.78;;;10.40;99.90;;;;;;5087338;28;20048;-85
2023/11/08 11:14:24;;;;;;;9.32;4.00;;;10.30;99.90;;;;;;5070170;28;20044;-84
2023/11/08 11:17:06;;;;;;;7.80;3.85;;;10.30;99.90;;;;;;5066859;28;20041;-84
2023/11/08 11:19:35;;;;;;;7.90;3.60;;;10.30;99.90;;;;;;5071980;28;20036;-85
2023/11/08 11:22:08;;;;;;;7.55;3.85;;;10.50;99.90;;;;;;5070593;28;20041;-84
2023/11/08 11:24:36;;;;;;;7.22;3.70;;;10.80;99.90;;;;;;5066437;28;20041;-84
2023/11/08 11:27:05;;;;;;;7.38;3.40;;;10.30;99.90;;;;;;5064132;28;20041;-86
2023/11/08 11:29:33;;;;;;;7.03;3.42;;;10.80;99.90;;;;;;5102719;28;20048;-85
2023/11/08 11:32:04;;;;;;;6.75;3.47;;;10.20;99.90;;;;;;5103241;28;20091;-83
2023/11/08 11:34:33;;;;;;;9.18;3.70;;;10.30;99.90;;;;;;5057490;28;20390;-85
2023/11/08 11:37:03;;;;;;;6.60;2.78;;;10.90;99.90;;;;;;5069830;28;20036;-84
2023/11/08 11:39:33;;;;;;;7.97;2.92;;;11.00;99.90;;;;;;5069991;28;20053;-85
2023/11/08 11:42:19;;;;;;;6.50;2.42;;;11.20;99.90;;;;;;5054528;28;20107;-85
2023/11/08 11:44:47;;;;;;;6.95;2.65;;;10.50;99.90;;;;;;5101571;28;20049;-84
2023/11/08 11:47:16;;;;;;;6.95;2.70;;;10.50;99.90;;;;;;5113660;28;20120;-83
2023/11/08 11:49:48;;;;;;;7.70;3.00;;;10.60;99.90;;;;;;5075035;28;20040;-85
2023/11/08 11:52:17;;;;;;;7.50;2.70;;;10.60;99.90;;;;;;5069840;28;20470;-85
2023/11/08 11:54:58;;;;;;;6.65;2.40;;;10.70;99.90;;;;;;5057541;28;20044;-83
2023/11/08 11:57:29;;;;;;;6.60;2.40;;;10.70;99.90;;;;;;5066746;28;20090;-84
2023/11/08 11:59:58;;;;;;;9.93;2.40;;;11.00;99.90;;;;;;5069620;28;20041;-84
2023/11/08 12:02:28;;;;;;;9.90;2.47;;;10.90;99.90;;;;;;5058353;28;20506;-83
2023/11/08 12:05:00;;;;;;;4.38;2.03;;;10.90;99.90;;;;;;5082537;28;20045;-83
2023/11/08 12:07:26;;;;;;;5.05;1.73;;;10.90;99.90;;;;;;5092272;28;20043;-82
2023/11/08 12:09:53;;;;;;;5.40;1.80;;;10.90;99.90;;;;;;5100435;28;20044;-83
2023/11/08 12:12:35;;;;;;;5.75;2.10;;;10.90;99.90;;;;;;5052811;28;20037;-83
2023/11/08 12:15:20;;;;;;;6.00;2.10;;;10.90;99.90;;;;;;5072413;28;20107;-83
2023/11/08 12:17:51;;;;;;;7.00;1.98;;;10.80;99.90;;;;;;5066986;28;20049;-83
2023/11/08 12:20:25;;;;;;;6.18;2.05;;;10.80;99.90;;;;;;5069056;28;20422;-83
2023/11/08 12:22:53;;;;;;;6.72;1.85;;;10.70;99.90;;;;;;5061849;28;20115;-82
2023/11/08 12:25:21;;;;;;;3.80;1.90;;;10.80;99.90;;;;;;5067268;28;20045;-82
2023/11/08 12:27:50;;;;;;;7.38;1.60;;;10.80;99.90;;;;;;5107695;28;20143;-83
2023/11/08 12:30:17;;;;;;;3.08;1.60;;;10.80;99.90;;;;;;5068698;28;20810;-83
2023/11/08 12:32:44;;;;;;;3.47;1.60;;;10.70;99.90;;;;;;5066116;28;20129;-82
2023/11/08 12:35:11;;;;;;;5.70;1.63;;;10.90;99.90;;;;;;5100926;28;20087;-83
2023/11/08 12:37:39;;;;;;;6.90;1.80;;;10.70;99.90;;;;;;5069378;28;20084;-83
2023/11/08 12:40:21;;;;;;;4.25;1.85;;;10.70;99.90;;;;;;5068830;28;20573;-82
2023/11/08 12:42:51;;;;;;;4.50;1.40;;;10.60;99.90;;;;;;5113727;28;20409;-83
2023/11/08 12:45:31;;;;;;;4.88;1.42;;;10.70;99.90;;;;;;5102467;28;20454;-83
2023/11/08 12:48:04;;;;;;;4.18;1.80;;;10.60;99.90;;;;;;5092246;28;20034;-83
2023/11/08 12:50:34;;;;;;;5.38;1.88;;;10.60;99.90;;;;;;5069499;28;20033;-82